createdAt,value
2018-12-15T00:00:16.701Z,-0.74
2018-12-15T00:01:16.768Z,-0.74
2018-12-15T00:02:17.018Z,-0.74
2018-12-15T00:03:16.273Z,-0.76
2018-12-15T00:04:16.538Z,-0.76
2018-12-15T00:05:16.804Z,-0.76
2018-12-15T00:06:17.091Z,-0.73
2018-12-15T00:07:16.420Z,-0.74
2018-12-15T00:08:16.680Z,-0.74
2018-12-15T00:09:16.954Z,-0.76
2018-12-15T00:10:16.222Z,-0.74
2018-12-15T00:11:16.261Z,-0.77
2018-12-15T00:12:16.533Z,-0.74
2018-12-15T00:13:16.804Z,-0.74
2018-12-15T00:14:17.069Z,-0.76
2018-12-15T00:15:16.321Z,-0.76
2018-12-15T00:16:16.585Z,-0.78
2018-12-15T00:17:16.850Z,-0.78
2018-12-15T00:18:17.111Z,-0.77
2018-12-15T00:19:16.377Z,-0.78
2018-12-15T00:20:16.655Z,-0.77
2018-12-15T00:21:16.704Z,-0.78
2018-12-15T00:22:16.994Z,-0.77
2018-12-15T00:23:16.265Z,-0.77
2018-12-15T00:24:16.530Z,-0.74
2018-12-15T00:25:16.795Z,-0.77
2018-12-15T00:26:17.072Z,-0.76
2018-12-15T00:27:16.341Z,-0.77
2018-12-15T00:28:16.601Z,-0.76
2018-12-15T00:29:16.874Z,-0.76
2018-12-15T00:30:17.155Z,-0.78
2018-12-15T00:31:16.216Z,-0.76
2018-12-15T00:32:16.488Z,-0.77
2018-12-15T00:33:16.749Z,-0.78
2018-12-15T00:34:17.079Z,-0.78
2018-12-15T00:35:16.346Z,-0.76
2018-12-15T00:36:16.605Z,-0.77
2018-12-15T00:37:16.948Z,-0.77
2018-12-15T00:38:16.209Z,-0.80
2018-12-15T00:39:16.490Z,-0.77
2018-12-15T00:40:16.762Z,-0.78
2018-12-15T00:41:16.807Z,-0.80
2018-12-15T00:42:17.138Z,-0.78
2018-12-15T00:43:16.399Z,-0.78
2018-12-15T00:44:16.658Z,-0.81
2018-12-15T00:45:16.930Z,-0.81
2018-12-15T00:46:16.209Z,-0.80
2018-12-15T00:47:16.486Z,-0.78
2018-12-15T00:48:16.748Z,-0.80
2018-12-15T00:49:17.008Z,-0.80
2018-12-15T00:50:16.320Z,-0.80
2018-12-15T00:51:16.321Z,-0.78
2018-12-15T00:52:16.581Z,-0.78
2018-12-15T00:53:16.856Z,-0.77
2018-12-15T00:54:17.118Z,-0.77
2018-12-15T00:55:16.394Z,-0.80
2018-12-15T00:56:16.665Z,-0.78
2018-12-15T00:57:16.940Z,-0.80
2018-12-15T00:58:16.208Z,-0.80
2018-12-15T00:59:16.480Z,-0.77
2018-12-15T01:00:16.755Z,-0.80
2018-12-15T01:01:16.805Z,-0.80
2018-12-15T01:02:17.078Z,-0.81
2018-12-15T01:03:16.349Z,-0.78
2018-12-15T01:04:16.603Z,-0.77
2018-12-15T01:05:16.865Z,-0.78
2018-12-15T01:06:17.136Z,-0.80
2018-12-15T01:07:16.395Z,-0.78
2018-12-15T01:08:16.654Z,-0.80
2018-12-15T01:09:16.921Z,-0.82
2018-12-15T01:10:16.200Z,-0.81
2018-12-15T01:11:16.246Z,-0.81
2018-12-15T01:12:16.524Z,-0.82
2018-12-15T01:13:16.787Z,-0.82
2018-12-15T01:14:17.067Z,-0.82
2018-12-15T01:15:16.330Z,-0.82
2018-12-15T01:16:16.599Z,-0.85
2018-12-15T01:17:20.402Z,-0.85
2018-12-15T01:18:17.088Z,-0.82
2018-12-15T01:19:16.356Z,-0.84
2018-12-15T01:20:16.644Z,-0.84
2018-12-15T01:21:16.674Z,-0.84
2018-12-15T01:22:16.933Z,-0.84
2018-12-15T01:23:16.451Z,-0.85
2018-12-15T01:24:16.709Z,-0.84
2018-12-15T01:25:16.992Z,-0.82
2018-12-15T01:26:16.249Z,-0.84
2018-12-15T01:27:16.508Z,-0.84
2018-12-15T01:28:16.768Z,-0.82
2018-12-15T01:29:17.041Z,-0.84
2018-12-15T01:30:16.328Z,-0.82
2018-12-15T01:31:16.390Z,-0.82
2018-12-15T01:32:16.656Z,-0.85
2018-12-15T01:33:16.989Z,-0.85
2018-12-15T01:34:16.256Z,-0.85
2018-12-15T01:35:16.528Z,-0.87
2018-12-15T01:36:16.792Z,-0.84
2018-12-15T01:37:17.061Z,-0.84
2018-12-15T01:38:16.325Z,-0.87
2018-12-15T01:39:16.597Z,-0.87
2018-12-15T01:40:16.880Z,-0.87
2018-12-15T01:41:16.915Z,-0.84
2018-12-15T01:42:16.180Z,-0.87
2018-12-15T01:43:16.461Z,-0.85
2018-12-15T01:44:16.735Z,-0.84
2018-12-15T01:45:17.006Z,-0.84
2018-12-15T01:46:16.271Z,-0.84
2018-12-15T01:47:16.545Z,-0.84
2018-12-15T01:48:16.820Z,-0.84
2018-12-15T01:49:17.083Z,-0.87
2018-12-15T01:50:16.356Z,-0.85
2018-12-15T01:51:16.408Z,-0.84
2018-12-15T01:52:16.668Z,-0.82
2018-12-15T01:53:16.928Z,-0.82
2018-12-15T01:54:16.451Z,-0.82
2018-12-15T01:55:16.717Z,-0.85
2018-12-15T01:56:16.989Z,-0.87
2018-12-15T01:57:16.253Z,-0.87
2018-12-15T01:58:16.761Z,-0.84
2018-12-15T01:59:17.070Z,-0.84
2018-12-15T02:00:16.359Z,-0.85
2018-12-15T02:01:16.410Z,-0.85
2018-12-15T02:02:16.669Z,-0.85
2018-12-15T02:03:16.932Z,-0.84
2018-12-15T02:04:16.199Z,-0.85
2018-12-15T02:05:16.482Z,-0.85
2018-12-15T02:06:16.747Z,-0.84
2018-12-15T02:07:17.007Z,-0.85
2018-12-15T02:08:16.332Z,-0.85
2018-12-15T02:09:16.610Z,-0.85
2018-12-15T02:10:16.877Z,-0.84
2018-12-15T02:11:16.923Z,-0.84
2018-12-15T02:12:16.190Z,-0.87
2018-12-15T02:13:16.454Z,-0.85
2018-12-15T02:14:16.719Z,-0.85
2018-12-15T02:15:16.993Z,-0.84
2018-12-15T02:16:16.259Z,-0.85
2018-12-15T02:17:16.523Z,-0.85
2018-12-15T02:18:16.775Z,-0.85
2018-12-15T02:19:17.042Z,-0.85
2018-12-15T02:20:16.319Z,-0.85
2018-12-15T02:21:16.378Z,-0.82
2018-12-15T02:22:16.684Z,-0.87
2018-12-15T02:23:16.967Z,-0.87
2018-12-15T02:24:16.241Z,-0.82
2018-12-15T02:25:16.506Z,-0.84
2018-12-15T02:26:16.773Z,-0.84
2018-12-15T02:27:17.030Z,-0.84
2018-12-15T02:28:16.297Z,-0.85
2018-12-15T02:29:16.567Z,-0.87
2018-12-15T02:30:16.844Z,-0.84
2018-12-15T02:31:16.890Z,-0.82
2018-12-15T02:32:16.151Z,-0.84
2018-12-15T02:33:16.415Z,-0.85
2018-12-15T02:34:16.702Z,-0.85
2018-12-15T02:35:16.967Z,-0.82
2018-12-15T02:36:16.231Z,-0.82
2018-12-15T02:37:16.511Z,-0.82
2018-12-15T02:38:16.787Z,-0.82
2018-12-15T02:39:17.056Z,-0.84
2018-12-15T02:40:16.340Z,-0.84
2018-12-15T02:41:16.383Z,-0.81
2018-12-15T02:42:16.667Z,-0.85
2018-12-15T02:43:16.929Z,-0.87
2018-12-15T02:44:16.202Z,-0.88
2018-12-15T02:45:16.484Z,-0.87
2018-12-15T02:46:16.746Z,-0.84
2018-12-15T02:47:17.018Z,-0.82
2018-12-15T02:48:16.282Z,-0.84
2018-12-15T02:49:16.560Z,-0.87
2018-12-15T02:50:16.832Z,-0.82
2018-12-15T02:51:16.880Z,-0.82
2018-12-15T02:52:17.134Z,-0.82
2018-12-15T02:53:16.406Z,-0.84
2018-12-15T02:54:16.676Z,-0.85
2018-12-15T02:55:16.944Z,-0.84
2018-12-15T02:56:16.220Z,-0.81
2018-12-15T02:57:16.503Z,-0.84
2018-12-15T02:58:16.779Z,-0.85
2018-12-15T02:59:17.045Z,-0.84
2018-12-15T03:00:16.352Z,-0.85
2018-12-15T03:01:16.359Z,-0.87
2018-12-15T03:02:16.640Z,-0.85
2018-12-15T03:03:16.928Z,-0.85
2018-12-15T03:04:16.215Z,-0.87
2018-12-15T03:05:16.505Z,-0.85
2018-12-15T03:06:16.772Z,-0.88
2018-12-15T03:07:17.036Z,-0.88
2018-12-15T03:08:16.305Z,-0.88
2018-12-15T03:09:16.711Z,-0.87
2018-12-15T03:10:16.984Z,-0.87
2018-12-15T03:11:17.027Z,-0.88
2018-12-15T03:12:16.291Z,-0.88
2018-12-15T03:13:16.556Z,-0.90
2018-12-15T03:14:16.830Z,-0.88
2018-12-15T03:15:17.112Z,-0.88
2018-12-15T03:16:16.389Z,-0.88
2018-12-15T03:17:16.656Z,-0.88
2018-12-15T03:18:16.927Z,-0.85
2018-12-15T03:19:16.200Z,-0.88
2018-12-15T03:20:16.476Z,-0.88
2018-12-15T03:21:16.532Z,-0.90
2018-12-15T03:22:16.796Z,-0.88
2018-12-15T03:23:17.065Z,-0.87
2018-12-15T03:24:16.332Z,-0.87
2018-12-15T03:25:16.604Z,-0.88
2018-12-15T03:26:16.870Z,-0.90
2018-12-15T03:27:17.132Z,-0.87
2018-12-15T03:28:16.391Z,-0.90
2018-12-15T03:29:16.810Z,-0.90
2018-12-15T03:30:17.100Z,-0.90
2018-12-15T03:31:17.137Z,-0.90
2018-12-15T03:32:16.414Z,-0.87
2018-12-15T03:33:16.686Z,-0.88
2018-12-15T03:34:16.979Z,-0.88
2018-12-15T03:35:16.255Z,-0.90
2018-12-15T03:36:16.516Z,-0.88
2018-12-15T03:37:16.782Z,-0.88
2018-12-15T03:38:17.066Z,-0.91
2018-12-15T03:39:16.351Z,-0.92
2018-12-15T03:40:16.620Z,-0.91
2018-12-15T03:41:16.677Z,-0.92
2018-12-15T03:42:16.933Z,-0.91
2018-12-15T03:43:16.197Z,-0.92
2018-12-15T03:44:16.491Z,-0.91
2018-12-15T03:45:16.785Z,-0.88
2018-12-15T03:46:17.116Z,-0.91
2018-12-15T03:47:16.385Z,-0.88
2018-12-15T03:48:16.654Z,-0.88
2018-12-15T03:49:16.915Z,-0.88
2018-12-15T03:50:16.199Z,-0.88
2018-12-15T03:51:16.249Z,-0.88
2018-12-15T03:52:16.531Z,-0.88
2018-12-15T03:53:16.802Z,-0.91
2018-12-15T03:54:17.095Z,-0.90
2018-12-15T03:55:16.371Z,-0.90
2018-12-15T03:56:16.660Z,-0.94
2018-12-15T03:57:16.949Z,-0.91
2018-12-15T03:58:16.221Z,-0.88
2018-12-15T03:59:16.495Z,-0.91
2018-12-15T04:00:16.804Z,-0.91
2018-12-15T04:01:16.839Z,-0.95
2018-12-15T04:02:17.121Z,-0.91
2018-12-15T04:03:16.389Z,-0.90
2018-12-15T04:04:16.655Z,-0.92
2018-12-15T04:05:16.917Z,-0.91
2018-12-15T04:06:16.180Z,-0.92
2018-12-15T04:07:16.438Z,-0.92
2018-12-15T04:08:16.707Z,-0.90
2018-12-15T04:09:16.970Z,-0.91
2018-12-15T04:10:16.255Z,-0.91
2018-12-15T04:11:16.296Z,-0.90
2018-12-15T04:12:16.559Z,-0.90
2018-12-15T04:13:16.905Z,-0.91
2018-12-15T04:14:16.176Z,-0.92
2018-12-15T04:15:16.453Z,-0.92
2018-12-15T04:16:16.723Z,-0.92
2018-12-15T04:17:16.989Z,-0.92
2018-12-15T04:18:16.250Z,-0.91
2018-12-15T04:19:16.522Z,-0.90
2018-12-15T04:20:16.798Z,-0.92
2018-12-15T04:21:16.856Z,-0.91
2018-12-15T04:22:17.125Z,-0.92
2018-12-15T04:23:16.395Z,-0.91
2018-12-15T04:24:16.677Z,-0.92
2018-12-15T04:25:16.960Z,-0.94
2018-12-15T04:26:16.227Z,-0.92
2018-12-15T04:27:16.489Z,-0.92
2018-12-15T04:28:16.751Z,-0.91
2018-12-15T04:29:17.021Z,-0.92
2018-12-15T04:30:16.304Z,-0.91
2018-12-15T04:31:16.348Z,-0.92
2018-12-15T04:32:16.620Z,-0.92
2018-12-15T04:33:17.193Z,-0.92
2018-12-15T04:34:16.459Z,-0.92
2018-12-15T04:35:16.736Z,-0.92
2018-12-15T04:36:17.005Z,-0.94
2018-12-15T04:37:16.271Z,-0.91
2018-12-15T04:38:16.539Z,-0.90
2018-12-15T04:39:16.809Z,-0.91
2018-12-15T04:40:17.085Z,-0.92
2018-12-15T04:41:17.143Z,-0.92
2018-12-15T04:42:16.411Z,-0.91
2018-12-15T04:43:16.680Z,-0.91
2018-12-15T04:44:16.946Z,-0.94
2018-12-15T04:45:16.222Z,-0.94
2018-12-15T04:46:16.502Z,-0.95
2018-12-15T04:47:16.760Z,-0.94
2018-12-15T04:48:17.023Z,-0.95
2018-12-15T04:49:16.290Z,-0.94
2018-12-15T04:50:16.553Z,-0.92
2018-12-15T04:51:16.602Z,-0.95
2018-12-15T04:52:16.872Z,-0.95
2018-12-15T04:53:17.139Z,-0.95
2018-12-15T04:54:16.408Z,-0.97
2018-12-15T04:55:16.668Z,-0.94
2018-12-15T04:56:16.933Z,-0.94
2018-12-15T04:57:16.208Z,-0.97
2018-12-15T04:58:16.482Z,-0.94
2018-12-15T04:59:16.762Z,-0.97
2018-12-15T05:00:17.070Z,-0.97
2018-12-15T05:01:17.106Z,-0.95
2018-12-15T05:02:16.387Z,-0.94
2018-12-15T05:03:16.663Z,-0.97
2018-12-15T05:04:16.937Z,-0.91
2018-12-15T05:05:16.382Z,-0.97
2018-12-15T05:06:16.632Z,-0.94
2018-12-15T05:07:16.907Z,-0.95
2018-12-15T05:08:16.172Z,-0.95
2018-12-15T05:09:16.444Z,-0.94
2018-12-15T05:10:16.725Z,-0.94
2018-12-15T05:11:16.766Z,-0.95
2018-12-15T05:12:17.036Z,-0.95
2018-12-15T05:13:16.304Z,-0.94
2018-12-15T05:14:16.574Z,-0.92
2018-12-15T05:15:16.855Z,-0.97
2018-12-15T05:16:17.116Z,-0.92
2018-12-15T05:17:16.377Z,-0.94
2018-12-15T05:18:18.226Z,-0.95
2018-12-15T05:19:16.903Z,-0.95
2018-12-15T05:20:16.175Z,-0.95
2018-12-15T05:21:16.238Z,-0.94
2018-12-15T05:22:16.506Z,-0.91
2018-12-15T05:23:16.769Z,-0.95
2018-12-15T05:24:17.057Z,-0.92
2018-12-15T05:25:16.346Z,-0.98
2018-12-15T05:26:16.619Z,-0.98
2018-12-15T05:27:16.884Z,-0.98
2018-12-15T05:28:16.148Z,-0.97
2018-12-15T05:29:16.414Z,-0.98
2018-12-15T05:30:16.680Z,-0.97
2018-12-15T05:31:16.741Z,-0.97
2018-12-15T05:32:17.011Z,-0.97
2018-12-15T05:33:16.272Z,-0.97
2018-12-15T05:34:16.530Z,-0.98
2018-12-15T05:35:16.896Z,-0.97
2018-12-15T05:36:16.167Z,-0.95
2018-12-15T05:37:16.444Z,-0.94
2018-12-15T05:38:16.704Z,-0.98
2018-12-15T05:39:16.999Z,-0.98
2018-12-15T05:40:16.312Z,-0.95
2018-12-15T05:41:16.752Z,-0.98
2018-12-15T05:42:17.017Z,-0.97
2018-12-15T05:43:16.356Z,-0.97
2018-12-15T05:44:16.612Z,-0.94
2018-12-15T05:45:16.877Z,-0.95
2018-12-15T05:46:17.139Z,-0.95
2018-12-15T05:47:16.396Z,-0.97
2018-12-15T05:48:16.659Z,-0.94
2018-12-15T05:49:16.928Z,-0.91
2018-12-15T05:50:16.210Z,-0.92
2018-12-15T05:51:16.254Z,-0.92
2018-12-15T05:52:16.519Z,-0.94
2018-12-15T05:53:16.788Z,-0.92
2018-12-15T05:54:17.056Z,-0.94
2018-12-15T05:55:16.323Z,-0.94
2018-12-15T05:56:16.580Z,-0.95
2018-12-15T05:57:16.852Z,-0.98
2018-12-15T05:58:17.114Z,-0.95
2018-12-15T05:59:16.377Z,-0.95
2018-12-15T06:00:16.977Z,-0.95
2018-12-15T06:01:17.041Z,-0.94
2018-12-15T06:02:16.298Z,-0.97
2018-12-15T06:03:16.560Z,-0.97
2018-12-15T06:04:16.830Z,-0.97
2018-12-15T06:05:17.105Z,-1.00
2018-12-15T06:06:16.370Z,-0.98
2018-12-15T06:07:16.642Z,-0.98
2018-12-15T06:08:16.912Z,-0.98
2018-12-15T06:09:16.184Z,-0.97
2018-12-15T06:10:16.470Z,-0.95
2018-12-15T06:11:16.514Z,-0.98
2018-12-15T06:12:16.779Z,-0.97
2018-12-15T06:13:17.031Z,-0.94
2018-12-15T06:14:16.291Z,-0.98
2018-12-15T06:15:16.569Z,-0.97
2018-12-15T06:16:16.835Z,-0.97
2018-12-15T06:17:17.087Z,-0.98
2018-12-15T06:18:16.353Z,-1.00
2018-12-15T06:19:16.620Z,-1.00
2018-12-15T06:20:16.895Z,-1.00
2018-12-15T06:21:16.928Z,-0.97
2018-12-15T06:22:16.202Z,-1.02
2018-12-15T06:23:16.471Z,-1.01
2018-12-15T06:24:16.735Z,-1.00
2018-12-15T06:25:17.000Z,-1.02
2018-12-15T06:26:16.277Z,-1.00
2018-12-15T06:27:16.546Z,-1.01
2018-12-15T06:28:16.807Z,-1.02
2018-12-15T06:29:17.092Z,-1.04
2018-12-15T06:30:16.356Z,-1.02
2018-12-15T06:31:16.411Z,-1.01
2018-12-15T06:32:16.683Z,-1.02
2018-12-15T06:33:16.953Z,-1.00
2018-12-15T06:34:16.220Z,-1.02
2018-12-15T06:35:16.577Z,-1.00
2018-12-15T06:36:16.884Z,-1.01
2018-12-15T06:37:16.139Z,-1.00
2018-12-15T06:38:16.399Z,-1.00
2018-12-15T06:39:16.662Z,-1.01
2018-12-15T06:40:16.932Z,-1.01
2018-12-15T06:41:16.985Z,-1.02
2018-12-15T06:42:16.256Z,-1.00
2018-12-15T06:43:16.528Z,-1.02
2018-12-15T06:44:16.792Z,-1.04
2018-12-15T06:45:17.059Z,-1.04
2018-12-15T06:46:16.320Z,-1.02
2018-12-15T06:47:16.577Z,-1.01
2018-12-15T06:48:16.844Z,-1.01
2018-12-15T06:49:17.123Z,-1.02
2018-12-15T06:50:16.393Z,-1.02
2018-12-15T06:51:16.438Z,-1.02
2018-12-15T06:52:16.703Z,-1.02
2018-12-15T06:53:16.972Z,-1.01
2018-12-15T06:54:16.232Z,-1.01
2018-12-15T06:55:16.503Z,-1.04
2018-12-15T06:56:16.768Z,-1.02
2018-12-15T06:57:17.028Z,-1.02
2018-12-15T06:58:16.301Z,-1.04
2018-12-15T06:59:16.571Z,-1.01
2018-12-15T07:00:16.857Z,-1.02
2018-12-15T07:01:16.899Z,-1.02
2018-12-15T07:02:16.171Z,-1.02
2018-12-15T07:03:16.432Z,-1.00
2018-12-15T07:04:16.689Z,-1.01
2018-12-15T07:05:16.973Z,-0.98
2018-12-15T07:06:16.251Z,-1.00
2018-12-15T07:07:16.524Z,-1.00
2018-12-15T07:08:16.786Z,-0.98
2018-12-15T07:09:17.047Z,-0.97
2018-12-15T07:10:16.313Z,-0.95
2018-12-15T07:11:16.376Z,-0.95
2018-12-15T07:12:16.635Z,-1.00
2018-12-15T07:13:17.247Z,-1.01
2018-12-15T07:14:16.516Z,-0.97
2018-12-15T07:15:16.794Z,-1.01
2018-12-15T07:16:17.067Z,-1.02
2018-12-15T07:17:16.331Z,-1.04
2018-12-15T07:18:16.588Z,-1.02
2018-12-15T07:19:16.855Z,-1.01
2018-12-15T07:20:17.123Z,-1.00
2018-12-15T07:21:16.194Z,-0.97
2018-12-15T07:22:16.521Z,-0.98
2018-12-15T07:23:16.784Z,-1.00
2018-12-15T07:24:17.056Z,-0.97
2018-12-15T07:25:16.322Z,-0.97
2018-12-15T07:26:16.579Z,-0.97
2018-12-15T07:27:16.848Z,-0.98
2018-12-15T07:28:17.103Z,-0.95
2018-12-15T07:29:16.368Z,-0.92
2018-12-15T07:30:16.635Z,-0.92
2018-12-15T07:31:16.698Z,-0.92
2018-12-15T07:32:16.979Z,-0.92
2018-12-15T07:33:16.247Z,-0.94
2018-12-15T07:34:16.511Z,-0.92
2018-12-15T07:35:16.771Z,-0.90
2018-12-15T07:36:17.033Z,-0.91
2018-12-15T07:37:16.606Z,-0.91
2018-12-15T07:38:16.874Z,-0.95
2018-12-15T07:39:16.137Z,-0.91
2018-12-15T07:40:16.408Z,-0.91
2018-12-15T07:41:16.468Z,-0.94
2018-12-15T07:42:16.734Z,-0.95
2018-12-15T07:43:17.002Z,-0.92
2018-12-15T07:44:16.263Z,-0.91
2018-12-15T07:45:16.521Z,-0.91
2018-12-15T07:46:16.805Z,-0.91
2018-12-15T07:47:17.344Z,-0.88
2018-12-15T07:48:16.621Z,-0.91
2018-12-15T07:49:16.894Z,-0.91
2018-12-15T07:50:16.179Z,-0.91
2018-12-15T07:51:16.229Z,-0.91
2018-12-15T07:52:16.501Z,-0.91
2018-12-15T07:53:16.781Z,-0.88
2018-12-15T07:54:17.042Z,-0.88
2018-12-15T07:55:16.307Z,-0.88
2018-12-15T07:56:16.587Z,-0.87
2018-12-15T07:57:16.855Z,-0.82
2018-12-15T07:58:17.117Z,-0.84
2018-12-15T07:59:16.389Z,-0.81
2018-12-15T08:00:16.673Z,-0.81
2018-12-15T08:01:16.706Z,-0.78
2018-12-15T08:02:17.254Z,-0.77
2018-12-15T08:03:16.585Z,-0.77
2018-12-15T08:04:16.845Z,-0.76
2018-12-15T08:05:17.109Z,-0.76
2018-12-15T08:06:16.379Z,-0.77
2018-12-15T08:07:16.648Z,-0.77
2018-12-15T08:08:16.924Z,-0.76
2018-12-15T08:09:16.180Z,-0.77
2018-12-15T08:10:16.463Z,-0.76
2018-12-15T08:11:16.517Z,-0.73
2018-12-15T08:12:16.780Z,-0.76
2018-12-15T08:13:17.047Z,-0.77
2018-12-15T08:14:16.311Z,-0.77
2018-12-15T08:15:16.580Z,-0.71
2018-12-15T08:16:16.911Z,-0.69
2018-12-15T08:17:16.183Z,-0.66
2018-12-15T08:18:16.480Z,-0.66
2018-12-15T08:19:16.759Z,-0.67
2018-12-15T08:20:17.031Z,-0.67
2018-12-15T08:21:17.068Z,-0.67
2018-12-15T08:22:16.335Z,-0.66
2018-12-15T08:23:16.605Z,-0.66
2018-12-15T08:24:16.882Z,-0.66
2018-12-15T08:25:16.144Z,-0.64
2018-12-15T08:26:16.397Z,-0.63
2018-12-15T08:27:16.669Z,-0.66
2018-12-15T08:28:16.938Z,-0.67
2018-12-15T08:29:16.195Z,-0.69
2018-12-15T08:30:16.486Z,-0.66
2018-12-15T08:31:16.533Z,-0.64
2018-12-15T08:32:16.800Z,-0.63
2018-12-15T08:33:17.057Z,-0.59
2018-12-15T08:34:16.312Z,-0.59
2018-12-15T08:35:16.583Z,-0.60
2018-12-15T08:36:16.844Z,-0.61
2018-12-15T08:37:17.117Z,-0.61
2018-12-15T08:38:16.379Z,-0.59
2018-12-15T08:39:16.652Z,-0.59
2018-12-15T08:40:16.937Z,-0.61
2018-12-15T08:41:16.992Z,-0.57
2018-12-15T08:42:16.260Z,-0.60
2018-12-15T08:43:16.524Z,-0.57
2018-12-15T08:44:16.787Z,-0.57
2018-12-15T08:45:17.048Z,-0.57
2018-12-15T08:46:16.318Z,-0.56
2018-12-15T08:47:16.589Z,-0.56
2018-12-15T08:48:16.856Z,-0.54
2018-12-15T08:49:17.119Z,-0.53
2018-12-15T08:50:16.400Z,-0.52
2018-12-15T08:51:16.431Z,-0.52
2018-12-15T08:52:16.693Z,-0.49
2018-12-15T08:53:16.969Z,-0.49
2018-12-15T08:54:16.236Z,-0.47
2018-12-15T08:55:16.596Z,-0.47
2018-12-15T08:56:16.861Z,-0.49
2018-12-15T08:57:17.133Z,-0.46
2018-12-15T08:58:16.396Z,-0.46
2018-12-15T08:59:16.672Z,-0.49
2018-12-15T09:00:16.950Z,-0.50
2018-12-15T09:01:16.994Z,-0.47
2018-12-15T09:02:16.250Z,-0.43
2018-12-15T09:03:16.523Z,-0.43
2018-12-15T09:04:16.785Z,-0.46
2018-12-15T09:05:17.055Z,-0.52
2018-12-15T09:06:16.314Z,-0.42
2018-12-15T09:07:16.696Z,-0.43
2018-12-15T09:08:16.967Z,-0.45
2018-12-15T09:09:16.239Z,-0.45
2018-12-15T09:10:16.519Z,-0.41
2018-12-15T09:11:16.547Z,-0.45
2018-12-15T09:12:16.813Z,-0.43
2018-12-15T09:13:17.085Z,-0.39
2018-12-15T09:14:16.347Z,-0.36
2018-12-15T09:15:16.615Z,-0.35
2018-12-15T09:16:16.882Z,-0.38
2018-12-15T09:17:16.145Z,-0.36
2018-12-15T09:18:16.414Z,-0.38
2018-12-15T09:19:16.698Z,-0.36
2018-12-15T09:20:16.974Z,-0.32
2018-12-15T09:21:17.006Z,-0.32
2018-12-15T09:22:16.273Z,-0.39
2018-12-15T09:23:16.529Z,-0.36
2018-12-15T09:24:16.792Z,-0.38
2018-12-15T09:25:17.051Z,-0.36
2018-12-15T09:26:16.314Z,-0.41
2018-12-15T09:27:16.573Z,-0.35
2018-12-15T09:28:16.851Z,-0.35
2018-12-15T09:29:17.127Z,-0.33
2018-12-15T09:30:16.392Z,-0.29
2018-12-15T09:31:16.464Z,-0.31
2018-12-15T09:32:16.725Z,-0.33
2018-12-15T09:33:16.991Z,-0.36
2018-12-15T09:34:16.260Z,-0.35
2018-12-15T09:35:16.801Z,-0.35
2018-12-15T09:36:17.058Z,-0.32
2018-12-15T09:37:16.324Z,-0.28
2018-12-15T09:38:16.586Z,-0.28
2018-12-15T09:39:16.854Z,-0.31
2018-12-15T09:40:17.115Z,-0.29
2018-12-15T09:41:16.174Z,-0.28
2018-12-15T09:42:16.469Z,-0.23
2018-12-15T09:43:16.749Z,-0.18
2018-12-15T09:44:17.034Z,-0.21
2018-12-15T09:45:16.312Z,-0.19
2018-12-15T09:46:16.574Z,-0.19
2018-12-15T09:47:16.841Z,-0.26
2018-12-15T09:48:17.104Z,-0.25
2018-12-15T09:49:17.877Z,-0.32
2018-12-15T09:50:16.338Z,-0.32
2018-12-15T09:51:16.403Z,-0.32
2018-12-15T09:52:16.661Z,-0.26
2018-12-15T09:53:16.921Z,-0.25
2018-12-15T09:54:16.186Z,-0.23
2018-12-15T09:55:16.449Z,-0.22
2018-12-15T09:56:16.778Z,-0.21
2018-12-15T09:57:17.042Z,-0.22
2018-12-15T09:58:16.310Z,-0.26
2018-12-15T09:59:16.585Z,-0.28
2018-12-15T10:00:16.863Z,-0.22
2018-12-15T10:01:16.914Z,-0.25
2018-12-15T10:02:16.178Z,-0.28
2018-12-15T10:03:16.437Z,-0.26
2018-12-15T10:04:16.701Z,-0.25
2018-12-15T10:05:16.972Z,-0.26
2018-12-15T10:06:16.233Z,-0.22
2018-12-15T10:07:16.508Z,-0.25
2018-12-15T10:08:16.774Z,-0.26
2018-12-15T10:09:17.071Z,-0.22
2018-12-15T10:10:16.329Z,-0.21
2018-12-15T10:11:16.391Z,-0.25
2018-12-15T10:12:16.657Z,-0.22
2018-12-15T10:13:16.926Z,-0.23
2018-12-15T10:14:16.192Z,-0.25
2018-12-15T10:15:16.474Z,-0.21
2018-12-15T10:16:16.746Z,-0.28
2018-12-15T10:17:17.016Z,-0.26
2018-12-15T10:18:16.270Z,-0.23
2018-12-15T10:19:16.544Z,-0.23
2018-12-15T10:20:16.810Z,-0.31
2018-12-15T10:21:16.867Z,-0.32
2018-12-15T10:22:16.136Z,-0.28
2018-12-15T10:23:16.410Z,-0.31
2018-12-15T10:24:16.676Z,-0.29
2018-12-15T10:25:16.964Z,-0.28
2018-12-15T10:26:16.235Z,-0.23
2018-12-15T10:27:16.502Z,-0.26
2018-12-15T10:28:16.765Z,-0.25
2018-12-15T10:29:17.029Z,-0.25
2018-12-15T10:30:16.292Z,-0.25
2018-12-15T10:31:16.341Z,-0.14
2018-12-15T10:32:16.603Z,-0.14
2018-12-15T10:33:16.863Z,-0.15
2018-12-15T10:34:17.125Z,-0.12
2018-12-15T10:35:16.379Z,-0.13
2018-12-15T10:36:16.643Z,-0.17
2018-12-15T10:37:16.896Z,-0.17
2018-12-15T10:38:16.161Z,-0.17
2018-12-15T10:39:16.443Z,-0.18
2018-12-15T10:40:16.715Z,-0.19
2018-12-15T10:41:16.766Z,-0.19
2018-12-15T10:42:17.043Z,-0.15
2018-12-15T10:43:16.309Z,-0.15
2018-12-15T10:44:16.571Z,-0.17
2018-12-15T10:45:16.844Z,-0.21
2018-12-15T10:46:17.104Z,-0.19
2018-12-15T10:47:16.379Z,-0.18
2018-12-15T10:48:16.642Z,-0.18
2018-12-15T10:49:16.908Z,-0.15
2018-12-15T10:50:16.178Z,-0.15
2018-12-15T10:51:16.242Z,-0.12
2018-12-15T10:52:16.504Z,-0.17
2018-12-15T10:53:16.763Z,-0.14
2018-12-15T10:54:17.022Z,-0.15
2018-12-15T10:55:16.295Z,-0.07
2018-12-15T10:56:16.561Z,-0.10
2018-12-15T10:57:16.831Z,-0.11
2018-12-15T10:58:17.091Z,-0.11
2018-12-15T10:59:16.368Z,-0.15
2018-12-15T11:00:16.641Z,-0.19
2018-12-15T11:01:16.690Z,-0.17
2018-12-15T11:02:16.972Z,-0.17
2018-12-15T11:03:16.237Z,-0.12
2018-12-15T11:04:16.504Z,-0.15
2018-12-15T11:05:16.767Z,-0.15
2018-12-15T11:06:17.026Z,-0.17
2018-12-15T11:07:16.293Z,-0.23
2018-12-15T11:08:16.545Z,-0.22
2018-12-15T11:09:16.811Z,-0.14
2018-12-15T11:10:17.079Z,-0.17
2018-12-15T11:11:16.154Z,-0.08
2018-12-15T11:12:16.422Z,-0.08
2018-12-15T11:13:16.685Z,-0.07
2018-12-15T11:14:16.962Z,-0.11
2018-12-15T11:15:16.244Z,-0.10
2018-12-15T11:16:16.531Z,-0.15
2018-12-15T11:17:16.799Z,-0.12
2018-12-15T11:18:17.067Z,-0.05
2018-12-15T11:19:16.342Z,-0.01
2018-12-15T11:20:16.621Z,-0.01
2018-12-15T11:21:16.664Z,0.00
2018-12-15T11:22:16.936Z,0.00
2018-12-15T11:23:16.230Z,0.01
2018-12-15T11:24:16.509Z,-0.05
2018-12-15T11:25:16.788Z,0.00
2018-12-15T11:26:17.063Z,-0.01
2018-12-15T11:27:16.325Z,-0.05
2018-12-15T11:28:16.585Z,-0.01
2018-12-15T11:29:16.852Z,0.02
2018-12-15T11:30:17.130Z,-0.07
2018-12-15T11:31:16.191Z,-0.08
2018-12-15T11:32:16.451Z,-0.07
2018-12-15T11:33:16.724Z,-0.07
2018-12-15T11:34:16.994Z,-0.12
2018-12-15T11:35:16.265Z,-0.10
2018-12-15T11:36:16.539Z,-0.12
2018-12-15T11:37:16.806Z,-0.11
2018-12-15T11:38:17.073Z,-0.05
2018-12-15T11:39:16.338Z,-0.08
2018-12-15T11:40:16.655Z,-0.05
2018-12-15T11:41:16.732Z,-0.08
2018-12-15T11:42:17.004Z,-0.12
2018-12-15T11:43:16.259Z,-0.11
2018-12-15T11:44:16.523Z,-0.11
2018-12-15T11:45:16.804Z,-0.08
2018-12-15T11:46:17.087Z,-0.10
2018-12-15T11:47:16.352Z,-0.04
2018-12-15T11:48:16.630Z,-0.08
2018-12-15T11:49:16.905Z,-0.10
2018-12-15T11:50:16.179Z,-0.15
2018-12-15T11:51:16.223Z,-0.25
2018-12-15T11:52:16.499Z,-0.28
2018-12-15T11:53:16.762Z,-0.25
2018-12-15T11:54:17.026Z,-0.29
2018-12-15T11:55:16.293Z,-0.28
2018-12-15T11:56:16.557Z,-0.39
2018-12-15T11:57:16.815Z,-0.31
2018-12-15T11:58:17.072Z,-0.26
2018-12-15T11:59:16.337Z,-0.18
2018-12-15T12:00:16.625Z,-0.21
2018-12-15T12:01:16.648Z,-0.14
2018-12-15T12:02:16.915Z,-0.15
2018-12-15T12:03:16.179Z,-0.18
2018-12-15T12:04:16.451Z,-0.12
2018-12-15T12:05:16.727Z,-0.07
2018-12-15T12:06:17.003Z,-0.10
2018-12-15T12:07:16.269Z,-0.15
2018-12-15T12:08:16.531Z,-0.18
2018-12-15T12:09:16.796Z,-0.18
2018-12-15T12:10:17.077Z,-0.15
2018-12-15T12:11:16.138Z,-0.15
2018-12-15T12:12:16.410Z,-0.14
2018-12-15T12:13:16.677Z,-0.18
2018-12-15T12:14:16.944Z,-0.15
2018-12-15T12:15:16.220Z,-0.15
2018-12-15T12:16:16.485Z,-0.11
2018-12-15T12:17:16.753Z,-0.08
2018-12-15T12:18:17.017Z,-0.08
2018-12-15T12:19:16.286Z,-0.05
2018-12-15T12:20:16.565Z,-0.03
2018-12-15T12:21:16.640Z,-0.05
2018-12-15T12:22:16.906Z,0.00
2018-12-15T12:23:16.163Z,-0.10
2018-12-15T12:24:16.430Z,-0.10
2018-12-15T12:25:16.749Z,-0.12
2018-12-15T12:26:17.034Z,-0.21
2018-12-15T12:27:16.313Z,-0.17
2018-12-15T12:28:16.585Z,-0.11
2018-12-15T12:29:16.854Z,-0.07
2018-12-15T12:30:17.120Z,-0.14
2018-12-15T12:31:16.193Z,-0.15
2018-12-15T12:32:16.448Z,-0.11
2018-12-15T12:33:16.720Z,-0.12
2018-12-15T12:34:17.007Z,-0.08
2018-12-15T12:35:16.278Z,-0.15
2018-12-15T12:36:16.550Z,-0.12
2018-12-15T12:37:16.934Z,-0.14
2018-12-15T12:38:16.197Z,-0.14
2018-12-15T12:39:16.453Z,-0.18
2018-12-15T12:40:16.731Z,-0.19
2018-12-15T12:41:16.777Z,-0.14
2018-12-15T12:42:17.342Z,-0.22
2018-12-15T12:43:16.606Z,-0.17
2018-12-15T12:44:16.897Z,-0.11
2018-12-15T12:45:16.175Z,-0.11
2018-12-15T12:46:16.442Z,-0.08
2018-12-15T12:47:16.704Z,-0.03
2018-12-15T12:48:16.962Z,-0.10
2018-12-15T12:49:16.228Z,-0.08
2018-12-15T12:50:16.492Z,-0.07
2018-12-15T12:51:16.576Z,-0.08
2018-12-15T12:52:16.836Z,-0.08